Accueil
METAR-TAF:

METAR-TAF

Aéroports :

Aéroport de Constantine - Mohamed Boudiaf

Constantine, Algérie

latitude: 36-17N, longitude: 006-37E, altitude: 694 m

Observation

Le bulletin a été fait il y a 34 minutes, à 10:00 UTC
Vent 4 kt de nord-est
Température 35°C
Humidité 20%
Pression 1017 hPa
Visibilité 10 km ou plus
pas de nuages en-dessous de 1500 mètres et pas de cumulonimbus.

METAR: DABC 151000Z 04004KT CAVOK 35/09 Q1017

Heure: 11:34 (10:34 UTC)

Prévision

Le bulletin a été fait il y a 5 heures et 34 minutes, à 05:00 UTC
Prévision valable du 15 à 06 UTC au 16 à 06 UTC
Vent 8 kt de nord/nord-ouest
Visibilité 10 km ou plus
pas de nuages en-dessous de 1500 mètres et pas de cumulonimbus.
Probabilité 30% :
Temporairement
du 15 à 13 UTC au 15 à 20 UTC
Vent 12 kt de ouest

TAF: DABC 150500Z 1506/1606 33008KT CAVOK PROB30 TEMPO 1513/1520 26012KT

Observations et prévisions météorologiques de plus de 4000 aéroports (messages METAR et TAF).

Les stations disponibles sont représentées par des disques jaunes et rouges sur la carte.

Passer la souris dessus pour voir le nom de la station.

Cliquer dessus pour voir les observations et prévisions météorologiques.

Pour changer de carte: cliquez sur les boutons verts avec une croix noire pour zoomer, sur le bouton vert avec un tiret pour effectuer un zoom arrière, ou sur les flèches vertes pour les cartes adjacentes.


METAR-TAF: